Time;durP1;ratioP1;P1;durP2;ratioP2;P2;SDS_P1;SDS_P2;PMS_P1;PMS_P2;Temp;Humidity;BMP_temperature;BMP_pressure;BME280_temperature;BME280_humidity;BME280_pressure;Samples;Min_cycle;Max_cycle;Signal;HPM_P1;HPM_P2
2022/06/17 00:01:13;;;;;;;1999.90;999.90;;;;;;;;;;5110910;27;20382;-78
2022/06/17 00:03:41;;;;;;;1999.90;999.90;;;;;;;;;;5112687;27;20412;-79
2022/06/17 00:06:11;;;;;;;1999.90;999.90;;;;;;;;;;5107739;27;20382;-80
2022/06/17 00:08:40;;;;;;;1999.90;999.90;;;;;;;;;;5114598;27;20389;-78
2022/06/17 00:11:12;;;;;;;1999.90;999.90;;;;;;;;;;5112661;27;20386;-79
2022/06/17 00:13:41;;;;;;;1999.90;999.90;;;;;;;;;;5114345;27;20494;-77
2022/06/17 00:16:10;;;;;;;1999.90;999.90;;;;;;;;;;5116047;27;20466;-78
2022/06/17 00:18:39;;;;;;;1999.90;999.90;;;;;;;;;;5099426;27;20421;-78
2022/06/17 00:21:11;;;;;;;1999.90;999.90;;;;;;;;;;5116084;27;20385;-78
2022/06/17 00:23:39;;;;;;;1999.90;999.90;;;;;;;;;;5116816;27;20502;-77
2022/06/17 00:26:08;;;;;;;1999.90;999.90;;;;;;;;;;5101457;27;21261;-77
2022/06/17 00:28:38;;;;;;;1999.90;999.90;;;;;;;;;;5119105;27;20358;-78
2022/06/17 00:31:06;;;;;;;1999.90;999.90;;;;;;;;;;5109383;27;20406;-77
2022/06/17 00:33:34;;;;;;;1999.90;999.90;;;;;;;;;;5094343;27;20446;-76
2022/06/17 00:36:02;;;;;;;1999.90;999.90;;;;;;;;;;5104654;27;20399;-78
2022/06/17 00:38:32;;;;;;;1999.90;999.90;;;;;;;;;;5110410;27;21662;-80
2022/06/17 00:41:07;;;;;;;1999.90;999.90;;;;;;;;;;5107286;27;20413;-80
2022/06/17 00:43:36;;;;;;;1999.90;999.90;;;;;;;;;;5116524;27;20435;-80
2022/06/17 00:46:10;;;;;;;1999.90;999.90;;;;;;;;;;5111184;27;20512;-76
2022/06/17 00:48:40;;;;;;;1999.90;999.90;;;;;;;;;;5115813;27;20436;-75
2022/06/17 00:51:14;;;;;;;1999.90;999.90;;;;;;;;;;5113116;27;20394;-76
2022/06/17 00:53:45;;;;;;;1999.90;999.90;;;;;;;;;;5114610;27;20922;-78
2022/06/17 00:56:16;;;;;;;1999.90;999.90;;;;;;;;;;5131093;27;20394;-76
2022/06/17 00:59:08;;;;;;;1999.90;999.90;;;;;;;;;;5113770;27;20417;-79
2022/06/17 01:01:42;;;;;;;1999.90;999.90;;;;;;;;;;5095293;27;20390;-76
2022/06/17 01:04:11;;;;;;;1999.90;999.90;;;;;;;;;;5111849;27;20406;-76
2022/06/17 01:06:43;;;;;;;1999.90;999.90;;;;;;;;;;5094296;27;20775;-74
2022/06/17 01:12:03;;;;;;;1999.90;999.90;;;;;;;;;;5114198;27;20417;-76
2022/06/17 01:14:32;;;;;;;1999.90;999.90;;;;;;;;;;5097215;27;20459;-77
2022/06/17 01:17:03;;;;;;;1999.90;999.90;;;;;;;;;;5116665;27;20413;-76
2022/06/17 01:19:35;;;;;;;1999.90;999.90;;;;;;;;;;5114229;27;20402;-77
2022/06/17 01:22:33;;;;;;;1999.90;999.90;;;;;;;;;;5112301;27;21031;-78
2022/06/17 01:25:03;;;;;;;1999.90;999.90;;;;;;;;;;5092374;27;20430;-77
2022/06/17 01:27:33;;;;;;;1999.90;999.90;;;;;;;;;;5093574;27;20402;-79
2022/06/17 01:30:02;;;;;;;1999.90;999.90;;;;;;;;;;5113557;27;21319;-78
2022/06/17 01:32:42;;;;;;;1999.90;999.90;;;;;;;;;;5097142;27;20394;-77
2022/06/17 01:35:11;;;;;;;1999.90;999.90;;;;;;;;;;5096809;27;20484;-76
2022/06/17 01:37:41;;;;;;;1999.90;999.90;;;;;;;;;;5097584;27;20752;-77
2022/06/17 01:40:09;;;;;;;1999.90;999.90;;;;;;;;;;5112824;27;20947;-77
2022/06/17 01:42:38;;;;;;;1999.90;999.90;;;;;;;;;;5099960;27;20903;-77
2022/06/17 01:45:07;;;;;;;1999.90;999.90;;;;;;;;;;5113936;27;20404;-77
2022/06/17 01:47:35;;;;;;;1999.90;999.90;;;;;;;;;;5115391;27;20428;-78
2022/06/17 01:50:06;;;;;;;1999.90;999.90;;;;;;;;;;5097150;27;20429;-78
2022/06/17 01:52:37;;;;;;;1999.90;999.90;;;;;;;;;;5114239;27;20401;-77
2022/06/17 01:55:09;;;;;;;1999.90;999.90;;;;;;;;;;5096233;27;21463;-77
2022/06/17 01:57:39;;;;;;;1999.90;999.90;;;;;;;;;;5114295;27;20394;-77
2022/06/17 02:00:11;;;;;;;1999.90;999.90;;;;;;;;;;5096076;27;21593;-78
2022/06/17 02:02:48;;;;;;;1999.90;999.90;;;;;;;;;;5102550;27;20385;-76
2022/06/17 02:05:16;;;;;;;1999.90;999.90;;;;;;;;;;5098264;27;20993;-77
2022/06/17 02:07:47;;;;;;;1999.90;999.90;;;;;;;;;;5115690;27;20403;-77
2022/06/17 02:10:17;;;;;;;1999.90;999.90;;;;;;;;;;5115298;27;20398;-77
2022/06/17 02:12:45;;;;;;;1999.90;999.90;;;;;;;;;;5114894;27;20488;-79
2022/06/17 02:15:13;;;;;;;1999.90;999.90;;;;;;;;;;5116227;27;20405;-78
2022/06/17 02:18:02;;;;;;;1999.90;999.90;;;;;;;;;;5115699;27;20412;-78
2022/06/17 02:20:41;;;;;;;1999.90;999.90;;;;;;;;;;5116924;27;21034;-78
2022/06/17 02:23:10;;;;;;;1999.90;999.90;;;;;;;;;;5115106;27;20409;-78
2022/06/17 02:25:41;;;;;;;1999.90;999.90;;;;;;;;;;5115099;27;20406;-76
2022/06/17 02:28:11;;;;;;;1999.90;999.90;;;;;;;;;;5114079;27;20412;-77
2022/06/17 02:30:41;;;;;;;1999.90;999.90;;;;;;;;;;5114497;27;20443;-77
2022/06/17 02:33:10;;;;;;;1999.90;999.90;;;;;;;;;;5111899;27;20939;-77
2022/06/17 02:35:41;;;;;;;1999.90;999.90;;;;;;;;;;5116227;27;20420;-79
2022/06/17 02:38:13;;;;;;;1999.90;999.90;;;;;;;;;;5113745;27;20731;-78
2022/06/17 02:40:46;;;;;;;1999.90;999.90;;;;;;;;;;5133036;27;21331;-77
2022/06/17 02:43:16;;;;;;;1999.90;999.90;;;;;;;;;;5111994;27;20417;-77
2022/06/17 02:45:46;;;;;;;1999.90;999.90;;;;;;;;;;5098832;27;20408;-78
2022/06/17 02:48:18;;;;;;;1999.90;999.90;;;;;;;;;;5096249;27;20399;-78
2022/06/17 02:50:46;;;;;;;1999.90;999.90;;;;;;;;;;5128839;27;20504;-78
2022/06/17 02:53:17;;;;;;;1999.90;999.90;;;;;;;;;;5112725;27;20899;-78
2022/06/17 02:55:49;;;;;;;1999.90;999.90;;;;;;;;;;5097338;27;20401;-77
2022/06/17 02:58:21;;;;;;;1999.90;999.90;;;;;;;;;;5110418;27;20755;-76
2022/06/17 03:00:49;;;;;;;1999.90;999.90;;;;;;;;;;5097988;27;20439;-78
2022/06/17 03:03:18;;;;;;;1999.90;999.90;;;;;;;;;;5093746;27;20404;-79
2022/06/17 03:05:47;;;;;;;1999.90;999.90;;;;;;;;;;5095976;27;20415;-77
2022/06/17 03:08:19;;;;;;;1999.90;999.90;;;;;;;;;;5096475;27;20387;-78
2022/06/17 03:10:47;;;;;;;1999.90;999.90;;;;;;;;;;5113864;27;21669;-79
2022/06/17 03:13:19;;;;;;;1999.90;999.90;;;;;;;;;;5114568;27;20409;-79
2022/06/17 03:15:48;;;;;;;1999.90;999.90;;;;;;;;;;5114350;27;20389;-79
2022/06/17 03:18:17;;;;;;;1999.90;999.90;;;;;;;;;;5094754;27;20410;-78
2022/06/17 03:20:46;;;;;;;1999.90;999.90;;;;;;;;;;5113442;27;20415;-78
2022/06/17 03:23:17;;;;;;;1999.90;999.90;;;;;;;;;;5115055;27;20501;-78
2022/06/17 03:25:50;;;;;;;1999.90;999.90;;;;;;;;;;5091344;27;20809;-78
2022/06/17 03:28:21;;;;;;;1999.90;999.90;;;;;;;;;;5091488;27;20385;-79
2022/06/17 03:30:51;;;;;;;1999.90;999.90;;;;;;;;;;5088746;27;20531;-78
2022/06/17 03:33:23;;;;;;;1999.90;999.90;;;;;;;;;;5112277;27;20390;-78
2022/06/17 03:35:54;;;;;;;1999.90;999.90;;;;;;;;;;5096924;27;20855;-79
2022/06/17 03:38:27;;;;;;;1999.90;999.90;;;;;;;;;;5111137;27;20442;-78
2022/06/17 03:40:59;;;;;;;1999.90;999.90;;;;;;;;;;5109947;27;20416;-75
2022/06/17 03:43:30;;;;;;;1999.90;999.90;;;;;;;;;;5113183;27;21704;-76
2022/06/17 03:46:02;;;;;;;1999.90;999.90;;;;;;;;;;5114077;27;20409;-78
2022/06/17 03:48:34;;;;;;;1999.90;999.90;;;;;;;;;;5100534;27;20397;-79
2022/06/17 03:51:03;;;;;;;1999.90;999.90;;;;;;;;;;5133175;27;20421;-78
2022/06/17 03:53:35;;;;;;;1999.90;999.90;;;;;;;;;;5118916;27;20413;-79
2022/06/17 03:56:04;;;;;;;1999.90;999.90;;;;;;;;;;5100141;27;20407;-78
2022/06/17 03:58:37;;;;;;;1999.90;999.90;;;;;;;;;;5105399;27;20432;-80
2022/06/17 04:01:12;;;;;;;1999.90;999.90;;;;;;;;;;5114277;27;20961;-77
2022/06/17 04:03:42;;;;;;;1999.90;999.90;;;;;;;;;;5098598;27;22027;-77
2022/06/17 04:06:11;;;;;;;1999.90;999.90;;;;;;;;;;5098695;27;20401;-73
2022/06/17 04:08:51;;;;;;;1999.90;999.90;;;;;;;;;;5099858;27;21290;-74
2022/06/17 04:11:19;;;;;;;1999.90;999.90;;;;;;;;;;5099229;27;20405;-75
2022/06/17 04:13:49;;;;;;;1999.90;999.90;;;;;;;;;;5121387;27;20389;-75
2022/06/17 04:16:20;;;;;;;1999.90;999.90;;;;;;;;;;5135968;27;20410;-75
2022/06/17 04:18:48;;;;;;;1999.90;999.90;;;;;;;;;;5119726;27;20401;-75
2022/06/17 04:21:16;;;;;;;1999.90;999.90;;;;;;;;;;5116273;27;20951;-74
2022/06/17 04:23:47;;;;;;;1999.90;999.90;;;;;;;;;;5101798;27;20394;-76
2022/06/17 04:26:38;;;;;;;1999.90;999.90;;;;;;;;;;5110545;27;20407;-75
2022/06/17 04:29:19;;;;;;;1999.90;999.90;;;;;;;;;;5102598;27;20393;-75
2022/06/17 04:31:57;;;;;;;1999.90;999.90;;;;;;;;;;5101418;27;20386;-75
2022/06/17 04:34:25;;;;;;;1999.90;999.90;;;;;;;;;;5102695;27;20451;-75
2022/06/17 04:36:55;;;;;;;1999.90;999.90;;;;;;;;;;5102045;27;20406;-75
2022/06/17 04:39:30;;;;;;;1999.90;999.90;;;;;;;;;;5105640;27;20409;-75
2022/06/17 04:42:21;;;;;;;1999.90;999.90;;;;;;;;;;5113754;27;20772;-75
2022/06/17 04:44:51;;;;;;;1999.90;999.90;;;;;;;;;;5120270;27;20406;-77
2022/06/17 04:47:20;;;;;;;1999.90;999.90;;;;;;;;;;5104054;27;20493;-75
2022/06/17 04:49:54;;;;;;;1999.90;999.90;;;;;;;;;;5111639;27;20390;-76
2022/06/17 04:52:28;;;;;;;1999.90;999.90;;;;;;;;;;5114210;27;20405;-76
2022/06/17 04:55:08;;;;;;;1999.90;999.90;;;;;;;;;;5106992;27;20411;-75
2022/06/17 04:57:51;;;;;;;1999.90;999.90;;;;;;;;;;5114828;27;20414;-74
2022/06/17 05:00:22;;;;;;;1999.90;999.90;;;;;;;;;;5097916;27;20497;-75
2022/06/17 05:02:54;;;;;;;1999.90;999.90;;;;;;;;;;5111156;27;20413;-75
2022/06/17 05:05:37;;;;;;;1999.90;999.90;;;;;;;;;;5094973;27;20392;-75
2022/06/17 05:08:11;;;;;;;1999.90;999.90;;;;;;;;;;5099872;27;20422;-76
2022/06/17 05:10:46;;;;;;;1999.90;999.90;;;;;;;;;;5092496;27;20385;-75
2022/06/17 05:13:18;;;;;;;1999.90;999.90;;;;;;;;;;5117614;27;20405;-76
2022/06/17 05:15:48;;;;;;;1999.90;999.90;;;;;;;;;;5099712;27;20679;-76
2022/06/17 05:18:17;;;;;;;1999.90;999.90;;;;;;;;;;5117236;27;20401;-76
2022/06/17 05:20:47;;;;;;;1999.90;999.90;;;;;;;;;;5118100;27;21317;-77
2022/06/17 05:23:16;;;;;;;1999.90;999.90;;;;;;;;;;5118392;27;20690;-76
2022/06/17 05:25:49;;;;;;;1999.90;999.90;;;;;;;;;;5100018;27;21286;-75
2022/06/17 05:28:17;;;;;;;1999.90;999.90;;;;;;;;;;5119943;27;20898;-76
2022/06/17 05:30:51;;;;;;;1999.90;999.90;;;;;;;;;;5104192;27;20378;-76
2022/06/17 05:33:25;;;;;;;1999.90;999.90;;;;;;;;;;5110885;27;22045;-67
2022/06/17 05:35:53;;;;;;;1999.90;999.90;;;;;;;;;;5113282;27;20413;-70
2022/06/17 05:38:22;;;;;;;1999.90;999.90;;;;;;;;;;5098832;27;20490;-67
2022/06/17 05:40:50;;;;;;;1999.90;999.90;;;;;;;;;;5098272;27;20422;-70
2022/06/17 05:43:17;;;;;;;1999.90;999.90;;;;;;;;;;5114995;27;20835;-69
2022/06/17 05:45:48;;;;;;;1999.90;999.90;;;;;;;;;;5093919;27;20398;-70
2022/06/17 05:48:34;;;;;;;1999.90;999.90;;;;;;;;;;5098964;27;20442;-69
2022/06/17 05:51:27;;;;;;;1999.90;999.90;;;;;;;;;;5075044;27;20387;-70
2022/06/17 05:54:08;;;;;;;1999.90;999.90;;;;;;;;;;5096721;27;20390;-70
2022/06/17 05:56:41;;;;;;;1999.90;999.90;;;;;;;;;;5095270;27;20478;-73
2022/06/17 05:59:10;;;;;;;1999.90;999.90;;;;;;;;;;5097352;27;20393;-73
2022/06/17 06:01:39;;;;;;;1999.90;999.90;;;;;;;;;;5097415;27;20382;-74
2022/06/17 06:04:09;;;;;;;1999.90;999.90;;;;;;;;;;5099787;27;21815;-73
2022/06/17 06:06:37;;;;;;;1999.90;999.90;;;;;;;;;;5115440;27;20394;-73
2022/06/17 06:09:08;;;;;;;1999.90;999.90;;;;;;;;;;5098775;27;20409;-72
2022/06/17 06:11:36;;;;;;;1999.90;999.90;;;;;;;;;;5114545;27;20852;-73
2022/06/17 06:14:04;;;;;;;1999.90;999.90;;;;;;;;;;5091661;27;20890;-74
2022/06/17 06:16:32;;;;;;;1999.90;999.90;;;;;;;;;;5114449;27;20406;-73
2022/06/17 06:19:05;;;;;;;1999.90;999.90;;;;;;;;;;5097044;27;20405;-73
2022/06/17 06:21:34;;;;;;;1999.90;999.90;;;;;;;;;;5113396;27;20388;-73
2022/06/17 06:24:03;;;;;;;1999.90;999.90;;;;;;;;;;5114333;27;20421;-72
2022/06/17 06:26:33;;;;;;;1999.90;999.90;;;;;;;;;;5116131;27;20393;-72
2022/06/17 06:29:16;;;;;;;1999.90;999.90;;;;;;;;;;5098842;27;20436;-73
2022/06/17 06:31:46;;;;;;;1999.90;999.90;;;;;;;;;;5087576;22;20953;-70
2022/06/17 06:34:31;;;;;;;1999.90;999.90;;;;;;;;;;5074320;27;20934;-70
2022/06/17 06:36:59;;;;;;;1999.90;999.90;;;;;;;;;;5116683;27;20820;-69
2022/06/17 06:39:28;;;;;;;1999.90;999.90;;;;;;;;;;5121427;27;20428;-69
2022/06/17 06:41:59;;;;;;;1999.90;999.90;;;;;;;;;;5086973;27;20380;-70
2022/06/17 06:44:27;;;;;;;1999.90;999.90;;;;;;;;;;5109036;27;20507;-69
2022/06/17 06:47:01;;;;;;;1999.90;999.90;;;;;;;;;;5118775;27;20500;-70
2022/06/17 06:49:38;;;;;;;1999.90;999.90;;;;;;;;;;5093870;27;20945;-70
2022/06/17 06:52:06;;;;;;;1999.90;999.90;;;;;;;;;;5116424;27;20392;-69
2022/06/17 06:54:34;;;;;;;1999.90;999.90;;;;;;;;;;5132076;27;20404;-69
2022/06/17 06:57:02;;;;;;;1999.90;999.90;;;;;;;;;;5101990;27;21149;-70
2022/06/17 06:59:50;;;;;;;1999.90;999.90;;;;;;;;;;5104923;27;20412;-70
2022/06/17 07:02:19;;;;;;;1999.90;999.90;;;;;;;;;;5114504;27;20406;-69
2022/06/17 07:04:49;;;;;;;1999.90;999.90;;;;;;;;;;5106766;27;20386;-74
2022/06/17 07:07:38;;;;;;;1999.90;999.90;;;;;;;;;;5096876;27;20408;-74
2022/06/17 07:10:07;;;;;;;1999.90;999.90;;;;;;;;;;5113680;27;21263;-73
2022/06/17 07:12:35;;;;;;;1999.90;999.90;;;;;;;;;;5116914;27;20951;-72
2022/06/17 07:15:03;;;;;;;1999.90;999.90;;;;;;;;;;5099026;27;20369;-73
2022/06/17 07:17:31;;;;;;;1999.90;999.90;;;;;;;;;;5117002;27;20485;-72
2022/06/17 07:20:00;;;;;;;1999.90;999.90;;;;;;;;;;5116909;27;20872;-73
2022/06/17 07:22:28;;;;;;;1999.90;999.90;;;;;;;;;;5114322;27;20424;-73
2022/06/17 07:24:56;;;;;;;1999.90;999.90;;;;;;;;;;5114549;27;21543;-72
2022/06/17 07:27:24;;;;;;;1999.90;999.90;;;;;;;;;;5096885;27;20932;-73
2022/06/17 07:29:52;;;;;;;1999.90;999.90;;;;;;;;;;5098746;27;20414;-72
2022/06/17 07:32:19;;;;;;;1999.90;999.90;;;;;;;;;;5113492;27;20405;-73
2022/06/17 07:34:48;;;;;;;1999.90;999.90;;;;;;;;;;5117831;27;21448;-73
2022/06/17 07:40:04;;;;;;;1999.90;999.90;;;;;;;;;;5118346;27;20444;-74
2022/06/17 07:42:38;;;;;;;1999.90;999.90;;;;;;;;;;5095964;27;21180;-74
2022/06/17 07:45:07;;;;;;;1999.90;999.90;;;;;;;;;;5114423;27;20450;-72
2022/06/17 07:47:36;;;;;;;1999.90;999.90;;;;;;;;;;5118629;27;20401;-74
2022/06/17 07:50:05;;;;;;;1999.90;999.90;;;;;;;;;;5099051;27;20494;-74
2022/06/17 07:52:34;;;;;;;1999.90;999.90;;;;;;;;;;5115179;27;20473;-73
2022/06/17 07:55:02;;;;;;;1999.90;999.90;;;;;;;;;;5117695;27;20382;-73
2022/06/17 07:57:29;;;;;;;1999.90;999.90;;;;;;;;;;5111924;27;20405;-72
2022/06/17 07:59:57;;;;;;;1999.90;999.90;;;;;;;;;;5114503;27;20393;-72
2022/06/17 08:02:25;;;;;;;1999.90;999.90;;;;;;;;;;5115241;27;21188;-72
2022/06/17 08:04:52;;;;;;;1999.90;999.90;;;;;;;;;;5116595;27;20393;-73
2022/06/17 08:07:21;;;;;;;1999.90;999.90;;;;;;;;;;5114881;27;20405;-72
2022/06/17 08:09:50;;;;;;;1999.90;999.90;;;;;;;;;;5118981;27;20460;-73
2022/06/17 08:12:17;;;;;;;1999.90;999.90;;;;;;;;;;5117417;27;20967;-72
2022/06/17 08:14:47;;;;;;;1999.90;999.90;;;;;;;;;;5096389;27;20408;-73
2022/06/17 08:17:16;;;;;;;1999.90;999.90;;;;;;;;;;5116498;27;20354;-73
2022/06/17 08:19:44;;;;;;;1999.90;999.90;;;;;;;;;;5115256;27;20413;-72
2022/06/17 08:22:12;;;;;;;1999.90;999.90;;;;;;;;;;5115941;27;20515;-72
2022/06/17 08:24:40;;;;;;;1999.90;999.90;;;;;;;;;;5098278;27;20413;-73
2022/06/17 08:27:16;;;;;;;1999.90;999.90;;;;;;;;;;5116707;27;20823;-73
2022/06/17 08:29:44;;;;;;;1999.90;999.90;;;;;;;;;;5120982;27;20409;-73
2022/06/17 08:35:04;;;;;;;1999.90;999.90;;;;;;;;;;5114731;27;20496;-71
2022/06/17 08:37:32;;;;;;;1999.90;999.90;;;;;;;;;;5118305;27;20411;-72
2022/06/17 08:40:00;;;;;;;1999.90;999.90;;;;;;;;;;5117864;27;20429;-72
2022/06/17 08:42:39;;;;;;;1999.90;999.90;;;;;;;;;;5106928;27;20764;-73
2022/06/17 08:45:14;;;;;;;1999.90;999.90;;;;;;;;;;5102581;27;20393;-72
2022/06/17 08:47:46;;;;;;;1999.90;999.90;;;;;;;;;;5116010;27;21163;-72
2022/06/17 08:50:21;;;;;;;1999.90;999.90;;;;;;;;;;5116230;27;20416;-73
2022/06/17 08:53:15;;;;;;;1999.90;999.90;;;;;;;;;;5118300;27;20933;-73
2022/06/17 08:55:47;;;;;;;1999.90;999.90;;;;;;;;;;5120338;27;20482;-73
2022/06/17 08:58:20;;;;;;;1999.90;999.90;;;;;;;;;;5119005;27;20412;-74
2022/06/17 09:00:52;;;;;;;1999.90;999.90;;;;;;;;;;5117374;27;20948;-73
2022/06/17 09:03:26;;;;;;;1999.90;999.90;;;;;;;;;;5101084;27;20408;-73
2022/06/17 09:05:59;;;;;;;1999.90;999.90;;;;;;;;;;5116908;27;21635;-75
2022/06/17 09:08:37;;;;;;;1999.90;999.90;;;;;;;;;;5097653;27;20400;-72
2022/06/17 09:11:12;;;;;;;1999.90;999.90;;;;;;;;;;5098603;27;21010;-73
2022/06/17 09:13:45;;;;;;;1999.90;999.90;;;;;;;;;;5118337;27;20386;-72
2022/06/17 09:16:17;;;;;;;1999.90;999.90;;;;;;;;;;5118482;27;20365;-72
2022/06/17 09:18:47;;;;;;;1999.90;999.90;;;;;;;;;;5117682;27;20374;-72
2022/06/17 09:21:17;;;;;;;1999.90;999.90;;;;;;;;;;5118293;27;20390;-73
2022/06/17 09:23:45;;;;;;;1999.90;999.90;;;;;;;;;;5119229;27;20767;-72
2022/06/17 09:26:17;;;;;;;1999.90;999.90;;;;;;;;;;5095908;27;20488;-72
2022/06/17 09:28:50;;;;;;;1999.90;999.90;;;;;;;;;;5117407;27;20357;-71
2022/06/17 09:31:19;;;;;;;1999.90;999.90;;;;;;;;;;5117112;27;20401;-74
2022/06/17 09:33:49;;;;;;;1999.90;999.90;;;;;;;;;;5117469;27;20390;-71
2022/06/17 09:36:19;;;;;;;1999.90;999.90;;;;;;;;;;5118679;27;20406;-72
2022/06/17 09:38:51;;;;;;;1999.90;999.90;;;;;;;;;;5118656;27;20528;-71
2022/06/17 09:41:21;;;;;;;1999.90;999.90;;;;;;;;;;5118054;27;20779;-72
2022/06/17 09:43:53;;;;;;;1999.90;999.90;;;;;;;;;;5117618;27;20465;-73
2022/06/17 09:46:23;;;;;;;1999.90;999.90;;;;;;;;;;5116750;27;20462;-72
2022/06/17 09:48:54;;;;;;;1999.90;999.90;;;;;;;;;;5120912;27;20916;-72
2022/06/17 09:51:25;;;;;;;1999.90;999.90;;;;;;;;;;5117927;27;21656;-72
2022/06/17 09:53:57;;;;;;;1999.90;999.90;;;;;;;;;;5112929;27;20386;-74
2022/06/17 09:56:27;;;;;;;1999.90;999.90;;;;;;;;;;5119061;27;20392;-75
2022/06/17 09:59:00;;;;;;;1999.90;999.90;;;;;;;;;;5117937;27;20386;-73
2022/06/17 10:01:28;;;;;;;1999.90;999.90;;;;;;;;;;5117066;27;20428;-74
2022/06/17 10:03:56;;;;;;;1999.90;999.90;;;;;;;;;;5116238;27;20412;-74
2022/06/17 10:06:29;;;;;;;1999.90;999.90;;;;;;;;;;5118476;27;20943;-74
2022/06/17 10:09:06;;;;;;;1999.90;999.90;;;;;;;;;;5101806;27;20408;-73
2022/06/17 10:11:39;;;;;;;1999.90;999.90;;;;;;;;;;5118804;27;20404;-74
2022/06/17 10:14:22;;;;;;;1999.90;999.90;;;;;;;;;;5117347;27;20393;-75
2022/06/17 10:19:47;;;;;;;1999.90;999.90;;;;;;;;;;5119613;27;20409;-72
2022/06/17 10:22:22;;;;;;;1999.90;999.90;;;;;;;;;;5116690;27;20405;-72
2022/06/17 10:25:00;;;;;;;1999.90;999.90;;;;;;;;;;5118918;27;21150;-72
2022/06/17 10:27:33;;;;;;;1999.90;999.90;;;;;;;;;;5121371;27;20444;-72
2022/06/17 10:30:22;;;;;;;1999.90;999.90;;;;;;;;;;5123768;27;20402;-73
2022/06/17 10:32:51;;;;;;;1999.90;999.90;;;;;;;;;;5119460;27;20417;-72
2022/06/17 10:35:21;;;;;;;1999.90;999.90;;;;;;;;;;5137367;27;20385;-73
2022/06/17 10:37:49;;;;;;;1999.90;999.90;;;;;;;;;;5117555;27;20420;-73
2022/06/17 10:40:22;;;;;;;1999.90;999.90;;;;;;;;;;5101220;27;20917;-73
2022/06/17 10:42:50;;;;;;;1999.90;999.90;;;;;;;;;;5119100;27;20401;-72
2022/06/17 10:45:20;;;;;;;1999.90;999.90;;;;;;;;;;5118405;27;20476;-74
2022/06/17 10:47:50;;;;;;;1999.90;999.90;;;;;;;;;;5117452;27;20406;-74
2022/06/17 10:50:19;;;;;;;1999.90;999.90;;;;;;;;;;5116011;27;20490;-72
2022/06/17 10:52:50;;;;;;;1999.90;999.90;;;;;;;;;;5098701;27;20412;-73
2022/06/17 10:55:19;;;;;;;1999.90;999.90;;;;;;;;;;5117542;27;20378;-73
2022/06/17 10:58:01;;;;;;;1999.90;999.90;;;;;;;;;;5118024;27;20389;-74
2022/06/17 11:00:32;;;;;;;1999.90;999.90;;;;;;;;;;5100818;27;20895;-74
2022/06/17 11:03:15;;;;;;;1999.90;999.90;;;;;;;;;;5117466;27;20508;-73
2022/06/17 11:05:43;;;;;;;1999.90;999.90;;;;;;;;;;5117173;27;20496;-73
2022/06/17 11:08:20;;;;;;;1999.90;999.90;;;;;;;;;;5117486;27;20397;-75
2022/06/17 11:10:51;;;;;;;1999.90;999.90;;;;;;;;;;5116790;27;20486;-73
2022/06/17 11:13:20;;;;;;;1999.90;999.90;;;;;;;;;;5118537;27;20413;-76
2022/06/17 11:15:52;;;;;;;1999.90;999.90;;;;;;;;;;5115822;27;20404;-75
2022/06/17 11:18:23;;;;;;;1999.90;999.90;;;;;;;;;;5118151;27;20400;-75
2022/06/17 11:20:55;;;;;;;1999.90;999.90;;;;;;;;;;5117477;27;20386;-75
2022/06/17 11:23:24;;;;;;;1999.90;999.90;;;;;;;;;;5115040;27;20409;-73
2022/06/17 11:25:55;;;;;;;1999.90;999.90;;;;;;;;;;5115537;27;20405;-74
2022/06/17 11:28:24;;;;;;;1999.90;999.90;;;;;;;;;;5118349;27;20382;-73
2022/06/17 11:30:54;;;;;;;1999.90;999.90;;;;;;;;;;5118183;27;20398;-73
2022/06/17 11:33:24;;;;;;;1999.90;999.90;;;;;;;;;;5114726;27;21616;-74
2022/06/17 11:36:00;;;;;;;1999.90;999.90;;;;;;;;;;5118719;27;20385;-74
2022/06/17 11:38:28;;;;;;;1999.90;999.90;;;;;;;;;;5117183;27;20412;-74
2022/06/17 11:41:20;;;;;;;1999.90;999.90;;;;;;;;;;5114127;27;20481;-73
2022/06/17 11:43:48;;;;;;;1999.90;999.90;;;;;;;;;;5116514;27;20856;-73
2022/06/17 11:46:19;;;;;;;1999.90;999.90;;;;;;;;;;5119165;27;20405;-74
2022/06/17 11:48:48;;;;;;;1999.90;999.90;;;;;;;;;;5116680;27;20432;-74
2022/06/17 11:51:17;;;;;;;1999.90;999.90;;;;;;;;;;5115602;27;20408;-73
2022/06/17 11:53:47;;;;;;;1999.90;999.90;;;;;;;;;;5116958;27;20741;-74
2022/06/17 11:56:27;;;;;;;1999.90;999.90;;;;;;;;;;5116025;27;20951;-74
2022/06/17 11:59:10;;;;;;;1999.90;999.90;;;;;;;;;;5116909;27;20986;-74
2022/06/17 12:01:39;;;;;;;1999.90;999.90;;;;;;;;;;5106417;27;20398;-74
2022/06/17 12:04:27;;;;;;;1999.90;999.90;;;;;;;;;;5121726;27;20421;-73
2022/06/17 12:06:56;;;;;;;1999.90;999.90;;;;;;;;;;5119641;27;20409;-74
2022/06/17 12:09:30;;;;;;;1999.90;999.90;;;;;;;;;;5093830;27;20389;-73
2022/06/17 12:11:59;;;;;;;1999.90;999.90;;;;;;;;;;5120148;27;20408;-74
2022/06/17 12:14:30;;;;;;;1999.90;999.90;;;;;;;;;;5117721;27;20839;-75
2022/06/17 12:17:03;;;;;;;1999.90;999.90;;;;;;;;;;5120206;27;20412;-74
2022/06/17 12:19:51;;;;;;;1999.90;999.90;;;;;;;;;;5120088;27;20702;-74
2022/06/17 12:22:20;;;;;;;1999.90;999.90;;;;;;;;;;5119908;27;20853;-74
2022/06/17 12:24:50;;;;;;;1999.90;999.90;;;;;;;;;;5119874;27;21012;-74
2022/06/17 12:27:22;;;;;;;1999.90;999.90;;;;;;;;;;5122528;27;20393;-75
2022/06/17 12:30:13;;;;;;;1999.90;999.90;;;;;;;;;;5117501;27;20401;-75
2022/06/17 12:32:48;;;;;;;1999.90;999.90;;;;;;;;;;5120523;27;20649;-75
2022/06/17 12:35:18;;;;;;;1999.90;999.90;;;;;;;;;;5114685;27;20405;-74
2022/06/17 12:37:50;;;;;;;1999.90;999.90;;;;;;;;;;5120186;27;20408;-74
2022/06/17 12:40:21;;;;;;;1999.90;999.90;;;;;;;;;;5119671;27;20455;-73
2022/06/17 12:42:52;;;;;;;1999.90;999.90;;;;;;;;;;5119739;27;20500;-73
2022/06/17 12:45:24;;;;;;;1999.90;999.90;;;;;;;;;;5121487;27;20645;-73
2022/06/17 12:48:01;;;;;;;1999.90;999.90;;;;;;;;;;5107972;27;20571;-73
2022/06/17 12:53:25;;;;;;;1999.90;999.90;;;;;;;;;;5119849;27;20416;-76
2022/06/17 12:55:58;;;;;;;1999.90;999.90;;;;;;;;;;5118597;27;20496;-73
2022/06/17 12:58:32;;;;;;;1999.90;999.90;;;;;;;;;;5119602;27;20836;-74
2022/06/17 13:01:07;;;;;;;1999.90;999.90;;;;;;;;;;5119965;27;20456;-74
2022/06/17 13:03:53;;;;;;;1999.90;999.90;;;;;;;;;;5117612;27;20398;-75
2022/06/17 13:06:28;;;;;;;1999.90;999.90;;;;;;;;;;5121082;27;21251;-75
2022/06/17 13:09:02;;;;;;;1999.90;999.90;;;;;;;;;;5119477;27;21150;-74
2022/06/17 13:11:33;;;;;;;1999.90;999.90;;;;;;;;;;5120468;27;20402;-74
2022/06/17 13:14:10;;;;;;;1999.90;999.90;;;;;;;;;;5120055;27;20983;-75
2022/06/17 13:16:41;;;;;;;1999.90;999.90;;;;;;;;;;5120548;27;20915;-72
2022/06/17 13:19:14;;;;;;;1999.90;999.90;;;;;;;;;;5099822;27;20398;-73
2022/06/17 13:21:47;;;;;;;1999.90;999.90;;;;;;;;;;5114552;27;20931;-73
2022/06/17 13:24:18;;;;;;;1999.90;999.90;;;;;;;;;;5108033;27;20471;-74
2022/06/17 13:26:48;;;;;;;1999.90;999.90;;;;;;;;;;5113231;27;21560;-73
2022/06/17 13:29:19;;;;;;;1999.90;999.90;;;;;;;;;;5115869;27;20382;-73
2022/06/17 13:31:50;;;;;;;1999.90;999.90;;;;;;;;;;5117068;27;21925;-74
2022/06/17 13:34:21;;;;;;;1999.90;999.90;;;;;;;;;;5114039;27;20398;-74
2022/06/17 13:36:59;;;;;;;1999.90;999.90;;;;;;;;;;5115452;27;21309;-73
2022/06/17 13:39:28;;;;;;;1999.90;999.90;;;;;;;;;;5118402;27;20388;-74
2022/06/17 13:41:58;;;;;;;1999.90;999.90;;;;;;;;;;5114910;27;20401;-74
2022/06/17 13:44:31;;;;;;;1999.90;999.90;;;;;;;;;;5113680;27;20413;-74
2022/06/17 13:47:04;;;;;;;1999.90;999.90;;;;;;;;;;5115551;27;20992;-75
2022/06/17 13:49:43;;;;;;;1999.90;999.90;;;;;;;;;;5112732;27;20397;-75
2022/06/17 13:52:16;;;;;;;1999.90;999.90;;;;;;;;;;5112375;27;20397;-73
2022/06/17 13:54:47;;;;;;;1999.90;999.90;;;;;;;;;;5112373;27;20417;-74
2022/06/17 13:57:18;;;;;;;1999.90;999.90;;;;;;;;;;5115653;27;20421;-74
2022/06/17 13:59:49;;;;;;;1999.90;999.90;;;;;;;;;;5114846;27;20432;-73
2022/06/17 14:02:29;;;;;;;1999.90;999.90;;;;;;;;;;5112465;27;20412;-73
2022/06/17 14:05:08;;;;;;;1999.90;999.90;;;;;;;;;;5116955;27;20394;-73
2022/06/17 14:08:09;;;;;;;1999.90;999.90;;;;;;;;;;5114893;27;20497;-72
2022/06/17 14:10:41;;;;;;;1999.90;999.90;;;;;;;;;;5052374;28;20398;-73
2022/06/17 14:13:26;;;;;;;1999.90;999.90;;;;;;;;;;5052256;28;20418;-73
2022/06/17 14:16:01;;;;;;;1999.90;999.90;;;;;;;;;;5080174;27;20620;-72
2022/06/17 14:18:31;;;;;;;1999.90;999.90;;;;;;;;;;5115892;27;20512;-73
2022/06/17 14:21:05;;;;;;;1999.90;999.90;;;;;;;;;;5114739;27;20389;-73
2022/06/17 14:23:54;;;;;;;1999.90;999.90;;;;;;;;;;5115066;27;20386;-73